createdAt,value
2017-01-12T00:00:11.028Z,-7.03
2017-01-12T00:01:11.001Z,-6.99
2017-01-12T00:02:10.983Z,-7.07
2017-01-12T00:03:10.953Z,-7
2017-01-12T00:04:10.928Z,-7.13
2017-01-12T00:05:10.913Z,-7.14
2017-01-12T00:06:10.889Z,-7.08
2017-01-12T00:07:10.869Z,-7.1
2017-01-12T00:08:10.838Z,-7.14
2017-01-12T00:09:10.809Z,-7.08
2017-01-12T00:10:10.802Z,-7.13
2017-01-12T00:11:10.775Z,-7
2017-01-12T00:12:10.754Z,-7.03
2017-01-12T00:13:10.723Z,-7.05
2017-01-12T00:14:10.698Z,-7.07
2017-01-12T00:15:10.679Z,-7.05
2017-01-12T00:16:10.644Z,-7.03
2017-01-12T00:17:10.635Z,-7.13
2017-01-12T00:18:10.605Z,-7.02
2017-01-12T00:19:10.581Z,-7.03
2017-01-12T00:20:10.566Z,-7.1
2017-01-12T00:21:10.535Z,-7.11
2017-01-12T00:22:10.518Z,-7.05
2017-01-12T00:23:10.490Z,-7.11
2017-01-12T00:24:10.462Z,-7.17
2017-01-12T00:25:10.456Z,-7.13
2017-01-12T00:26:10.415Z,-7.03
2017-01-12T00:27:10.393Z,-7.13
2017-01-12T00:28:10.369Z,-7.02
2017-01-12T00:29:10.355Z,-7.1
2017-01-12T00:30:10.337Z,-7.11
2017-01-12T00:31:10.296Z,-7.13
2017-01-12T00:32:10.279Z,-7.08
2017-01-12T00:33:10.244Z,-7.16
2017-01-12T00:34:10.230Z,-7.03
2017-01-12T00:35:10.199Z,-7.13
2017-01-12T00:36:10.176Z,-7.1
2017-01-12T00:37:10.165Z,-6.98
2017-01-12T00:38:10.142Z,-7.07
2017-01-12T00:39:10.114Z,-7
2017-01-12T00:40:10.094Z,-6.96
2017-01-12T00:41:10.071Z,-6.98
2017-01-12T00:42:10.044Z,-6.95
2017-01-12T00:43:10.016Z,-6.89
2017-01-12T00:44:10.003Z,-6.92
2017-01-12T00:45:09.970Z,-6.89
2017-01-12T00:46:09.939Z,-6.95
2017-01-12T00:47:09.925Z,-6.99
2017-01-12T00:48:09.912Z,-6.93
2017-01-12T00:49:09.877Z,-6.92
2017-01-12T00:50:10.241Z,-6.9
2017-01-12T00:51:09.835Z,-6.95
2017-01-12T00:52:09.811Z,-6.92
2017-01-12T00:53:09.802Z,-6.96
2017-01-12T00:54:09.764Z,-6.95
2017-01-12T00:55:09.735Z,-7
2017-01-12T00:56:09.718Z,-6.92
2017-01-12T00:57:09.708Z,-6.9
2017-01-12T00:58:09.676Z,-6.93
2017-01-12T00:59:09.656Z,-6.85
2017-01-12T01:00:09.632Z,-6.84
2017-01-12T01:01:09.612Z,-6.85
2017-01-12T01:02:09.590Z,-6.9
2017-01-12T01:03:09.553Z,-6.89
2017-01-12T01:04:09.541Z,-6.87
2017-01-12T01:05:09.507Z,-6.81
2017-01-12T01:06:09.497Z,-6.95
2017-01-12T01:07:09.462Z,-6.85
2017-01-12T01:08:09.443Z,-6.92
2017-01-12T01:09:09.415Z,-6.85
2017-01-12T01:10:09.398Z,-6.85
2017-01-12T01:11:09.372Z,-6.89
2017-01-12T01:12:09.363Z,-6.96
2017-01-12T01:13:09.338Z,-6.89
2017-01-12T01:14:09.307Z,-6.98
2017-01-12T01:15:09.289Z,-7.02
2017-01-12T01:16:09.258Z,-7
2017-01-12T01:17:09.238Z,-7
2017-01-12T01:18:09.212Z,-7.08
2017-01-12T01:19:09.204Z,-7.03
2017-01-12T01:20:09.174Z,-7.1
2017-01-12T01:21:09.155Z,-7.16
2017-01-12T01:22:09.144Z,-7.16
2017-01-12T01:23:09.104Z,-7.05
2017-01-12T01:24:09.089Z,-7.05
2017-01-12T01:25:09.055Z,-7.03
2017-01-12T01:26:09.043Z,-7.05
2017-01-12T01:27:09.015Z,-6.99
2017-01-12T01:28:09.380Z,-7.05
2017-01-12T01:29:08.971Z,-7
2017-01-12T01:30:08.950Z,-6.98
2017-01-12T01:31:08.921Z,-6.95
2017-01-12T01:32:08.890Z,-6.99
2017-01-12T01:33:08.885Z,-6.95
2017-01-12T01:34:08.854Z,-7.02
2017-01-12T01:35:08.830Z,-6.99
2017-01-12T01:36:09.182Z,-7.02
2017-01-12T01:37:08.782Z,-7.02
2017-01-12T01:38:08.761Z,-7.11
2017-01-12T01:39:08.734Z,-7.16
2017-01-12T01:40:08.722Z,-6.98
2017-01-12T01:41:08.688Z,-7.07
2017-01-12T01:42:08.673Z,-7.05
2017-01-12T01:43:08.645Z,-6.99
2017-01-12T01:44:08.659Z,-7.07
2017-01-12T01:45:08.599Z,-6.98
2017-01-12T01:46:08.578Z,-7.03
2017-01-12T01:47:08.560Z,-6.99
2017-01-12T01:48:08.540Z,-6.96
2017-01-12T01:49:08.512Z,-6.98
2017-01-12T01:50:08.501Z,-7.03
2017-01-12T01:51:08.463Z,-6.99
2017-01-12T01:52:08.450Z,-6.99
2017-01-12T01:53:08.411Z,-6.98
2017-01-12T01:54:08.779Z,-6.96
2017-01-12T01:55:08.371Z,-6.96
2017-01-12T01:56:08.348Z,-6.93
2017-01-12T01:57:08.317Z,-6.96
2017-01-12T01:58:08.302Z,-6.9
2017-01-12T01:59:08.285Z,-6.92
2017-01-12T02:00:08.257Z,-6.99
2017-01-12T02:01:08.233Z,-6.93
2017-01-12T02:02:08.210Z,-6.9
2017-01-12T02:03:08.198Z,-6.92
2017-01-12T02:04:08.158Z,-6.95
2017-01-12T02:05:08.132Z,-7.02
2017-01-12T02:06:08.118Z,-7.07
2017-01-12T02:07:08.094Z,-7.07
2017-01-12T02:08:08.064Z,-6.96
2017-01-12T02:09:08.048Z,-6.96
2017-01-12T02:10:08.031Z,-7.02
2017-01-12T02:11:08.002Z,-7.02
2017-01-12T02:12:08.375Z,-7.05
2017-01-12T02:13:07.963Z,-7.05
2017-01-12T02:14:07.944Z,-7.1
2017-01-12T02:15:07.919Z,-7.14
2017-01-12T02:16:07.887Z,-6.96
2017-01-12T02:17:07.875Z,-6.99
2017-01-12T02:18:07.839Z,-6.98
2017-01-12T02:19:07.820Z,-7.02
2017-01-12T02:20:07.812Z,-6.96
2017-01-12T02:21:07.771Z,-7
2017-01-12T02:22:07.748Z,-6.98
2017-01-12T02:23:07.731Z,-7.1
2017-01-12T02:24:07.703Z,-6.99
2017-01-12T02:25:07.681Z,-7.1
2017-01-12T02:26:07.669Z,-7.13
2017-01-12T02:27:07.639Z,-7.18
2017-01-12T02:28:07.609Z,-7.2
2017-01-12T02:29:07.604Z,-7.24
2017-01-12T02:30:07.562Z,-7.2
2017-01-12T02:31:07.553Z,-7.23
2017-01-12T02:32:07.533Z,-7.27
2017-01-12T02:33:07.501Z,-7.18
2017-01-12T02:34:07.475Z,-7.17
2017-01-12T02:35:07.500Z,-7.16
2017-01-12T02:36:07.438Z,-7.23
2017-01-12T02:37:07.399Z,-7.17
2017-01-12T02:38:07.380Z,-7.28
2017-01-12T02:39:07.359Z,-7.17
2017-01-12T02:40:07.330Z,-7.29
2017-01-12T02:41:07.315Z,-7.24
2017-01-12T02:42:07.291Z,-7.24
2017-01-12T02:43:07.277Z,-7.27
2017-01-12T02:44:07.245Z,-7.17
2017-01-12T02:45:07.228Z,-7.32
2017-01-12T02:46:07.199Z,-7.45
2017-01-12T02:47:07.185Z,-7.45
2017-01-12T02:48:07.147Z,-7.35
2017-01-12T02:49:07.174Z,-7.45
2017-01-12T02:50:07.103Z,-7.41
2017-01-12T02:51:07.075Z,-7.45
2017-01-12T02:52:07.058Z,-7.37
2017-01-12T02:53:07.040Z,-7.35
2017-01-12T02:54:07.027Z,-7.32
2017-01-12T02:55:06.984Z,-7.34
2017-01-12T02:56:07.004Z,-7.38
2017-01-12T02:57:06.937Z,-7.38
2017-01-12T02:58:06.927Z,-7.35
2017-01-12T02:59:06.906Z,-7.35
2017-01-12T03:00:06.880Z,-7.34
2017-01-12T03:01:06.846Z,-7.35
2017-01-12T03:02:06.825Z,-7.38
2017-01-12T03:03:06.808Z,-7.34
2017-01-12T03:04:06.783Z,-7.35
2017-01-12T03:05:06.761Z,-7.32
2017-01-12T03:06:06.739Z,-7.31
2017-01-12T03:07:06.715Z,-7.31
2017-01-12T03:08:06.693Z,-7.28
2017-01-12T03:09:06.665Z,-7.31
2017-01-12T03:10:06.641Z,-7.35
2017-01-12T03:11:06.612Z,-7.32
2017-01-12T03:12:06.593Z,-7.37
2017-01-12T03:13:06.575Z,-7.37
2017-01-12T03:14:06.550Z,-7.31
2017-01-12T03:15:06.533Z,-7.29
2017-01-12T03:16:06.502Z,-7.32
2017-01-12T03:17:06.480Z,-7.28
2017-01-12T03:18:06.455Z,-7.24
2017-01-12T03:19:06.441Z,-7.27
2017-01-12T03:20:06.410Z,-7.31
2017-01-12T03:21:06.387Z,-7.27
2017-01-12T03:22:06.362Z,-7.24
2017-01-12T03:23:06.341Z,-7.2
2017-01-12T03:24:06.325Z,-7.17
2017-01-12T03:25:06.293Z,-7.18
2017-01-12T03:26:06.278Z,-7.21
2017-01-12T03:27:06.258Z,-7.24
2017-01-12T03:28:06.219Z,-7.18
2017-01-12T03:29:06.197Z,-7.27
2017-01-12T03:30:06.188Z,-7.29
2017-01-12T03:31:06.150Z,-7.23
2017-01-12T03:32:06.139Z,-7.14
2017-01-12T03:33:06.106Z,-7.18
2017-01-12T03:34:06.093Z,-7.27
2017-01-12T03:35:06.058Z,-7.2
2017-01-12T03:36:06.039Z,-7.28
2017-01-12T03:37:06.018Z,-7.27
2017-01-12T03:38:06.000Z,-7.23
2017-01-12T03:39:05.969Z,-7.24
2017-01-12T03:40:05.939Z,-7.21
2017-01-12T03:41:05.921Z,-7.28
2017-01-12T03:42:05.891Z,-7.17
2017-01-12T03:43:05.869Z,-7.08
2017-01-12T03:44:05.851Z,-7.2
2017-01-12T03:45:05.837Z,-7.14
2017-01-12T03:46:05.806Z,-7.11
2017-01-12T03:47:05.779Z,-7.17
2017-01-12T03:48:05.755Z,-7.1
2017-01-12T03:49:05.732Z,-6.96
2017-01-12T03:50:05.709Z,-7
2017-01-12T03:51:05.701Z,-6.98
2017-01-12T03:52:05.665Z,-6.96
2017-01-12T03:53:05.637Z,-6.93
2017-01-12T03:54:05.613Z,-6.93
2017-01-12T03:55:05.600Z,-6.89
2017-01-12T03:56:05.566Z,-6.96
2017-01-12T03:57:05.556Z,-7.02
2017-01-12T03:58:05.525Z,-6.99
2017-01-12T03:59:05.499Z,-7.03
2017-01-12T04:00:05.490Z,-6.98
2017-01-12T04:01:05.460Z,-7.07
2017-01-12T04:02:05.438Z,-6.98
2017-01-12T04:03:05.407Z,-6.93
2017-01-12T04:04:05.395Z,-6.96
2017-01-12T04:05:05.370Z,-6.92
2017-01-12T04:06:05.347Z,-6.92
2017-01-12T04:07:05.702Z,-6.92
2017-01-12T04:08:05.701Z,-6.93
2017-01-12T04:09:05.277Z,-6.89
2017-01-12T04:10:05.268Z,-6.87
2017-01-12T04:11:05.245Z,-6.81
2017-01-12T04:12:05.212Z,-6.96
2017-01-12T04:13:05.185Z,-6.99
2017-01-12T04:14:05.183Z,-6.93
2017-01-12T04:15:05.143Z,-6.93
2017-01-12T04:16:05.128Z,-6.93
2017-01-12T04:17:05.100Z,-6.9
2017-01-12T04:18:05.079Z,-6.84
2017-01-12T04:19:05.048Z,-6.98
2017-01-12T04:20:05.033Z,-6.9
2017-01-12T04:21:05.016Z,-6.9
2017-01-12T04:22:04.986Z,-6.82
2017-01-12T04:23:04.968Z,-6.89
2017-01-12T04:24:04.971Z,-7
2017-01-12T04:25:04.918Z,-6.92
2017-01-12T04:26:04.902Z,-6.87
2017-01-12T04:27:04.872Z,-6.79
2017-01-12T04:28:04.849Z,-6.9
2017-01-12T04:29:04.835Z,-6.92
2017-01-12T04:30:04.805Z,-6.85
2017-01-12T04:31:04.791Z,-6.95
2017-01-12T04:32:04.759Z,-6.81
2017-01-12T04:33:04.733Z,-6.9
2017-01-12T04:34:04.707Z,-6.92
2017-01-12T04:35:04.689Z,-6.87
2017-01-12T04:36:04.671Z,-6.79
2017-01-12T04:37:04.641Z,-6.79
2017-01-12T04:38:04.623Z,-6.74
2017-01-12T04:39:04.610Z,-6.71
2017-01-12T04:40:04.574Z,-6.78
2017-01-12T04:41:04.550Z,-6.71
2017-01-12T04:42:04.545Z,-6.71
2017-01-12T04:43:04.519Z,-6.71
2017-01-12T04:44:04.499Z,-6.77
2017-01-12T04:45:04.465Z,-6.71
2017-01-12T04:46:04.452Z,-6.79
2017-01-12T04:47:04.425Z,-6.84
2017-01-12T04:48:04.411Z,-6.82
2017-01-12T04:49:04.380Z,-6.84
2017-01-12T04:50:04.365Z,-6.82
2017-01-12T04:51:04.340Z,-6.75
2017-01-12T04:52:04.306Z,-6.74
2017-01-12T04:53:19.228Z,-6.77
2017-01-12T04:54:04.468Z,-6.77
2017-01-12T04:55:04.446Z,-6.74
2017-01-12T04:56:04.254Z,-6.72
2017-01-12T04:57:04.198Z,-6.77
2017-01-12T04:58:04.184Z,-6.71
2017-01-12T04:59:04.162Z,-6.67
2017-01-12T05:00:04.153Z,-6.71
2017-01-12T05:01:04.102Z,-6.81
2017-01-12T05:02:04.089Z,-6.79
2017-01-12T05:03:04.073Z,-6.85
2017-01-12T05:04:04.036Z,-6.72
2017-01-12T05:05:04.013Z,-6.79
2017-01-12T05:06:03.996Z,-6.82
2017-01-12T05:07:03.969Z,-6.78
2017-01-12T05:08:03.953Z,-6.85
2017-01-12T05:09:03.933Z,-6.87
2017-01-12T05:10:03.903Z,-6.9
2017-01-12T05:11:03.880Z,-6.95
2017-01-12T05:12:03.870Z,-6.98
2017-01-12T05:13:03.838Z,-6.92
2017-01-12T05:14:03.816Z,-6.87
2017-01-12T05:15:03.791Z,-6.95
2017-01-12T05:16:04.170Z,-6.89
2017-01-12T05:17:03.757Z,-6.87
2017-01-12T05:18:03.731Z,-6.85
2017-01-12T05:19:03.709Z,-6.85
2017-01-12T05:20:03.679Z,-6.81
2017-01-12T05:21:03.852Z,-6.81
2017-01-12T05:22:03.854Z,-6.71
2017-01-12T05:23:03.621Z,-6.79
2017-01-12T05:24:03.594Z,-6.89
2017-01-12T05:25:03.567Z,-6.85
2017-01-12T05:26:03.544Z,-6.89
2017-01-12T05:27:03.523Z,-6.92
2017-01-12T05:28:03.512Z,-6.85
2017-01-12T05:29:03.480Z,-6.9
2017-01-12T05:30:03.456Z,-6.85
2017-01-12T05:31:03.433Z,-6.87
2017-01-12T05:32:03.415Z,-6.74
2017-01-12T05:33:03.778Z,-6.74
2017-01-12T05:34:03.379Z,-6.75
2017-01-12T05:35:03.362Z,-6.75
2017-01-12T05:36:03.338Z,-6.74
2017-01-12T05:37:03.300Z,-6.79
2017-01-12T05:38:03.666Z,-6.78
2017-01-12T05:39:03.257Z,-6.72
2017-01-12T05:40:03.242Z,-6.74
2017-01-12T05:41:03.215Z,-6.82
2017-01-12T05:42:03.043Z,-6.81
2017-01-12T05:43:03.176Z,-6.87
2017-01-12T05:44:03.149Z,-6.95
2017-01-12T05:45:03.135Z,-6.9
2017-01-12T05:46:03.101Z,-6.92
2017-01-12T05:47:03.085Z,-6.96
2017-01-12T05:48:03.267Z,-6.95
2017-01-12T05:49:03.040Z,-6.98
2017-01-12T05:50:03.390Z,-6.98
2017-01-12T05:51:02.994Z,-6.92
2017-01-12T05:52:02.969Z,-6.89
2017-01-12T05:53:02.947Z,-6.9
2017-01-12T05:54:02.924Z,-6.87
2017-01-12T05:55:02.907Z,-6.89
2017-01-12T05:56:02.869Z,-6.95
2017-01-12T05:57:02.862Z,-6.9
2017-01-12T05:58:02.837Z,-6.82
2017-01-12T05:59:02.805Z,-6.85
2017-01-12T06:00:02.787Z,-6.82
2017-01-12T06:01:02.761Z,-6.84
2017-01-12T06:02:02.737Z,-6.85
2017-01-12T06:03:02.722Z,-6.75
2017-01-12T06:04:02.696Z,-6.77
2017-01-12T06:05:02.667Z,-6.79
2017-01-12T06:06:02.656Z,-6.85
2017-01-12T06:07:02.618Z,-6.85
2017-01-12T06:08:02.612Z,-6.82
2017-01-12T06:09:02.585Z,-6.82
2017-01-12T06:10:02.568Z,-6.82
2017-01-12T06:11:02.529Z,-6.82
2017-01-12T06:12:02.514Z,-6.84
2017-01-12T06:13:02.483Z,-6.87
2017-01-12T06:14:02.466Z,-6.89
2017-01-12T06:15:02.649Z,-6.9
2017-01-12T06:16:02.422Z,-6.96
2017-01-12T06:17:02.394Z,-6.98
2017-01-12T06:18:02.378Z,-6.85
2017-01-12T06:19:02.358Z,-6.93
2017-01-12T06:20:02.336Z,-7.02
2017-01-12T06:21:02.304Z,-7.07
2017-01-12T06:22:02.289Z,-6.96
2017-01-12T06:23:02.255Z,-7.17
2017-01-12T06:24:02.231Z,-7.13
2017-01-12T06:25:02.248Z,-7.08
2017-01-12T06:26:02.200Z,-7.16
2017-01-12T06:27:02.171Z,-7.11
2017-01-12T06:28:02.151Z,-7.17
2017-01-12T06:29:02.128Z,-7.08
2017-01-12T06:30:02.106Z,-7.11
2017-01-12T06:31:02.068Z,-7.16
2017-01-12T06:32:02.064Z,-7.14
2017-01-12T06:33:02.027Z,-7.08
2017-01-12T06:34:01.997Z,-7.08
2017-01-12T06:35:01.984Z,-7.03
2017-01-12T06:36:01.960Z,-6.98
2017-01-12T06:37:01.943Z,-6.98
2017-01-12T06:38:01.910Z,-7
2017-01-12T06:39:01.884Z,-6.92
2017-01-12T06:40:01.865Z,-6.93
2017-01-12T06:41:02.049Z,-6.92
2017-01-12T06:42:01.819Z,-6.87
2017-01-12T06:43:01.797Z,-6.89
2017-01-12T06:44:01.780Z,-6.87
2017-01-12T06:45:01.755Z,-6.84
2017-01-12T06:46:01.732Z,-6.82
2017-01-12T06:47:01.696Z,-6.9
2017-01-12T06:48:01.676Z,-6.98
2017-01-12T06:49:01.655Z,-6.98
2017-01-12T06:50:01.631Z,-6.95
2017-01-12T06:51:01.615Z,-7
2017-01-12T06:52:01.576Z,-6.98
2017-01-12T06:53:01.564Z,-7.05
2017-01-12T06:54:01.539Z,-7.17
2017-01-12T06:55:01.508Z,-7.16
2017-01-12T06:56:01.500Z,-7.16
2017-01-12T06:57:01.465Z,-7.16
2017-01-12T06:58:01.444Z,-7.03
2017-01-12T06:59:01.424Z,-7.07
2017-01-12T07:00:01.399Z,-7.07
2017-01-12T07:01:01.381Z,-7.14
2017-01-12T07:02:01.355Z,-7.1
2017-01-12T07:03:01.325Z,-7.11
2017-01-12T07:04:01.692Z,-7.07
2017-01-12T07:05:01.277Z,-7.11
2017-01-12T07:06:01.258Z,-7.14
2017-01-12T07:07:01.231Z,-7.16
2017-01-12T07:08:01.415Z,-7.13
2017-01-12T07:09:01.181Z,-7.16
2017-01-12T07:10:01.159Z,-7.1
2017-01-12T07:11:01.144Z,-7.11
2017-01-12T07:12:01.113Z,-7.18
2017-01-12T07:13:01.097Z,-7.05
2017-01-12T07:14:01.067Z,-7.1
2017-01-12T07:15:01.042Z,-7.17
2017-01-12T07:16:01.017Z,-7.08
2017-01-12T07:17:01.001Z,-7.17
2017-01-12T07:18:00.976Z,-7.17
2017-01-12T07:19:00.959Z,-7.14
2017-01-12T07:20:00.937Z,-7.1
2017-01-12T07:21:00.901Z,-7.17
2017-01-12T07:22:00.890Z,-7.24
2017-01-12T07:23:00.864Z,-7.18
2017-01-12T07:24:00.835Z,-7.13
2017-01-12T07:25:00.814Z,-7.1
2017-01-12T07:26:00.782Z,-7.17
2017-01-12T07:27:00.775Z,-7.16
2017-01-12T07:28:00.755Z,-7.1
2017-01-12T07:29:00.719Z,-7.13
2017-01-12T07:30:00.701Z,-7.21
2017-01-12T07:31:00.673Z,-7.13
2017-01-12T07:32:00.649Z,-7.08
2017-01-12T07:33:01.025Z,-7.1
2017-01-12T07:34:00.607Z,-7.1
2017-01-12T07:35:00.582Z,-7.07
2017-01-12T07:36:00.942Z,-7.18
2017-01-12T07:37:00.535Z,-7.24
2017-01-12T07:38:00.520Z,-7.23
2017-01-12T07:39:00.500Z,-7.18
2017-01-12T07:40:00.469Z,-7.28
2017-01-12T07:41:00.436Z,-7.24
2017-01-12T07:42:00.420Z,-7.28
2017-01-12T07:43:00.396Z,-7.23
2017-01-12T07:44:00.382Z,-7.28
2017-01-12T07:45:00.346Z,-7.2
2017-01-12T07:46:00.329Z,-7.23
2017-01-12T07:47:00.303Z,-7.24
2017-01-12T07:48:00.279Z,-7.31
2017-01-12T07:49:00.265Z,-7.31
2017-01-12T07:50:00.238Z,-7.39
2017-01-12T07:51:00.213Z,-7.34
2017-01-12T07:52:00.182Z,-7.34
2017-01-12T07:53:00.160Z,-7.46
2017-01-12T07:54:00.150Z,-7.46
2017-01-12T07:55:00.119Z,-7.39
2017-01-12T07:56:00.095Z,-7.34
2017-01-12T07:57:00.073Z,-7.35
2017-01-12T07:58:00.051Z,-7.37
2017-01-12T07:59:00.026Z,-7.46
2017-01-12T08:00:00.398Z,-7.41
2017-01-12T08:00:59.983Z,-7.37
2017-01-12T08:01:59.961Z,-7.34
2017-01-12T08:02:59.936Z,-7.32
2017-01-12T08:03:59.920Z,-7.46
2017-01-12T08:04:59.889Z,-7.34
2017-01-12T08:05:59.862Z,-7.27
2017-01-12T08:06:59.836Z,-7.27
2017-01-12T08:07:59.814Z,-7.28
2017-01-12T08:08:59.799Z,-7.35
2017-01-12T08:09:59.771Z,-7.34
2017-01-12T08:10:59.745Z,-7.29
2017-01-12T08:12:00.108Z,-7.34
2017-01-12T08:12:59.695Z,-7.27
2017-01-12T08:13:59.671Z,-7.2
2017-01-12T08:14:59.650Z,-7.32
2017-01-12T08:15:59.625Z,-7.28
2017-01-12T08:16:59.645Z,-7.21
2017-01-12T08:17:59.584Z,-7.27
2017-01-12T08:18:59.559Z,-7.18
2017-01-12T08:19:59.526Z,-7.2
2017-01-12T08:20:59.514Z,-7.13
2017-01-12T08:21:59.486Z,-7.17
2017-01-12T08:22:59.472Z,-7.29
2017-01-12T08:23:59.437Z,-7.21
2017-01-12T08:24:59.416Z,-7.17
2017-01-12T08:25:59.385Z,-7.16
2017-01-12T08:26:59.372Z,-7.18
2017-01-12T08:27:59.348Z,-7.13
2017-01-12T08:28:59.316Z,-7.27
2017-01-12T08:29:59.305Z,-7.18
2017-01-12T08:30:59.279Z,-7.21
2017-01-12T08:31:59.246Z,-7.27
2017-01-12T08:32:59.224Z,-7.24
2017-01-12T08:33:59.201Z,-7.21
2017-01-12T08:34:59.576Z,-7.21
2017-01-12T08:35:59.168Z,-7.23
2017-01-12T08:36:59.136Z,-7.23
2017-01-12T08:37:59.117Z,-7.2
2017-01-12T08:38:59.091Z,-7.17
2017-01-12T08:39:59.069Z,-7.28
2017-01-12T08:40:59.054Z,-7.23
2017-01-12T08:41:59.022Z,-7.24
2017-01-12T08:42:59.007Z,-7.14
2017-01-12T08:43:58.975Z,-7.27
2017-01-12T08:44:58.947Z,-7.28
2017-01-12T08:45:58.934Z,-7.21
2017-01-12T08:46:58.912Z,-7.27
2017-01-12T08:47:58.882Z,-7.21
2017-01-12T08:48:58.866Z,-7.21
2017-01-12T08:49:58.835Z,-7.24
2017-01-12T08:50:58.819Z,-7.2
2017-01-12T08:51:58.792Z,-7.14
2017-01-12T08:52:58.768Z,-7.1
2017-01-12T08:53:58.744Z,-7.16
2017-01-12T08:54:58.716Z,-7.08
2017-01-12T08:55:58.702Z,-6.99
2017-01-12T08:56:58.684Z,-7.03
2017-01-12T08:57:58.653Z,-7
2017-01-12T08:58:58.636Z,-6.98
2017-01-12T08:59:58.597Z,-7.02
2017-01-12T09:00:58.589Z,-6.96
2017-01-12T09:01:58.563Z,-6.89
2017-01-12T09:02:58.540Z,-6.9
2017-01-12T09:03:58.512Z,-6.85
2017-01-12T09:04:58.487Z,-6.81
2017-01-12T09:05:58.476Z,-6.82
2017-01-12T09:06:58.472Z,-6.84
2017-01-12T09:07:58.419Z,-7.05
2017-01-12T09:08:58.400Z,-7
2017-01-12T09:09:58.380Z,-7.16
2017-01-12T09:10:58.366Z,-7.02
2017-01-12T09:11:58.336Z,-7.17
2017-01-12T09:12:58.317Z,-7.16
2017-01-12T09:13:58.290Z,-7.08
2017-01-12T09:14:58.275Z,-6.95
2017-01-12T09:15:58.244Z,-6.98
2017-01-12T09:16:58.224Z,-6.87
2017-01-12T09:17:58.210Z,-6.87
2017-01-12T09:18:58.183Z,-6.9
2017-01-12T09:19:58.155Z,-6.78
2017-01-12T09:20:58.134Z,-6.72
2017-01-12T09:21:58.106Z,-6.71
2017-01-12T09:22:58.095Z,-6.79
2017-01-12T09:23:58.105Z,-6.85
2017-01-12T09:24:58.054Z,-6.9
2017-01-12T09:25:58.022Z,-7.05
2017-01-12T09:26:57.993Z,-7.08
2017-01-12T09:27:57.976Z,-7.1
2017-01-12T09:28:57.955Z,-7.17
2017-01-12T09:29:57.968Z,-7.16
2017-01-12T09:30:57.917Z,-7.14
2017-01-12T09:31:57.889Z,-7.16
2017-01-12T09:32:57.859Z,-7.14
2017-01-12T09:33:57.850Z,-7
2017-01-12T09:34:57.823Z,-6.98
2017-01-12T09:35:57.804Z,-6.81
2017-01-12T09:36:57.782Z,-6.78
2017-01-12T09:37:57.748Z,-6.77
2017-01-12T09:38:57.721Z,-6.72
2017-01-12T09:39:57.716Z,-6.82
2017-01-12T09:40:57.677Z,-6.92
2017-01-12T09:41:57.671Z,-6.93
2017-01-12T09:42:57.641Z,-6.89
2017-01-12T09:43:57.620Z,-6.93
2017-01-12T09:44:57.593Z,-6.96
2017-01-12T09:45:57.579Z,-6.98
2017-01-12T09:46:57.552Z,-7
2017-01-12T09:47:57.532Z,-7.07
2017-01-12T09:48:57.508Z,-6.96
2017-01-12T09:49:57.871Z,-6.92
2017-01-12T09:50:57.466Z,-6.95
2017-01-12T09:51:57.449Z,-6.9
2017-01-12T09:52:57.426Z,-6.82
2017-01-12T09:53:57.407Z,-6.78
2017-01-12T09:54:57.368Z,-6.74
2017-01-12T09:55:57.343Z,-6.81
2017-01-12T09:56:57.329Z,-6.79
2017-01-12T09:57:57.299Z,-6.71
2017-01-12T09:58:57.288Z,-6.72
2017-01-12T09:59:57.257Z,-6.9
2017-01-12T10:00:57.242Z,-6.93
2017-01-12T10:01:57.225Z,-6.89
2017-01-12T10:02:57.189Z,-6.85
2017-01-12T10:03:57.179Z,-6.81
2017-01-12T10:04:57.150Z,-6.82
2017-01-12T10:05:57.124Z,-6.81
2017-01-12T10:06:57.116Z,-6.71
2017-01-12T10:07:57.084Z,-6.74
2017-01-12T10:08:57.057Z,-6.71
2017-01-12T10:09:57.041Z,-6.82
2017-01-12T10:10:57.020Z,-6.78
2017-01-12T10:11:56.996Z,-6.81
2017-01-12T10:12:56.973Z,-6.72
2017-01-12T10:13:56.949Z,-6.74
2017-01-12T10:14:56.969Z,-6.66
2017-01-12T10:15:57.284Z,-6.61
2017-01-12T10:16:56.890Z,-6.78
2017-01-12T10:17:56.860Z,-6.66
2017-01-12T10:18:57.228Z,-6.72
2017-01-12T10:19:56.817Z,-6.72
2017-01-12T10:20:56.789Z,-6.9
2017-01-12T10:21:56.773Z,-7.08
2017-01-12T10:22:56.754Z,-7.03
2017-01-12T10:23:56.725Z,-7.05
2017-01-12T10:24:56.705Z,-6.96
2017-01-12T10:25:56.683Z,-7.03
2017-01-12T10:26:56.662Z,-6.95
2017-01-12T10:27:56.640Z,-6.89
2017-01-12T10:28:57.008Z,-6.9
2017-01-12T10:29:56.604Z,-6.9
2017-01-12T10:30:56.575Z,-6.98
2017-01-12T10:31:56.552Z,-6.96
2017-01-12T10:32:56.522Z,-6.98
2017-01-12T10:33:56.508Z,-7.16
2017-01-12T10:34:56.488Z,-7.16
2017-01-12T10:35:56.467Z,-7.18
2017-01-12T10:36:56.449Z,-7.18
2017-01-12T10:37:56.412Z,-7.16
2017-01-12T10:38:56.400Z,-7.1
2017-01-12T10:39:56.377Z,-7.11
2017-01-12T10:40:56.344Z,-7.11
2017-01-12T10:41:56.363Z,-7.08
2017-01-12T10:42:56.303Z,-6.98
2017-01-12T10:43:56.285Z,-6.85
2017-01-12T10:44:56.259Z,-6.96
2017-01-12T10:45:56.235Z,-7.03
2017-01-12T10:46:56.205Z,-7.03
2017-01-12T10:47:56.189Z,-7.11
2017-01-12T10:48:56.170Z,-7.1
2017-01-12T10:49:56.149Z,-6.98
2017-01-12T10:50:56.114Z,-6.92
2017-01-12T10:51:56.096Z,-6.89
2017-01-12T10:52:56.073Z,-6.9
2017-01-12T10:53:56.056Z,-6.84
2017-01-12T10:54:56.044Z,-6.74
2017-01-12T10:55:56.065Z,-6.71
2017-01-12T10:56:55.992Z,-6.74
2017-01-12T10:57:55.973Z,-6.75
2017-01-12T10:58:55.943Z,-6.75
2017-01-12T10:59:55.916Z,-6.64
2017-01-12T11:00:55.901Z,-6.67
2017-01-12T11:01:55.879Z,-6.69
2017-01-12T11:02:55.851Z,-6.71
2017-01-12T11:03:55.837Z,-6.66
2017-01-12T11:04:55.815Z,-6.64
2017-01-12T11:05:55.791Z,-6.74
2017-01-12T11:06:55.773Z,-6.81
2017-01-12T11:07:55.748Z,-6.84
2017-01-12T11:08:55.726Z,-6.87
2017-01-12T11:09:55.695Z,-6.85
2017-01-12T11:10:55.683Z,-6.84
2017-01-12T11:11:55.658Z,-6.84
2017-01-12T11:12:55.632Z,-6.77
2017-01-12T11:13:55.612Z,-6.79
2017-01-12T11:14:55.590Z,-6.75
2017-01-12T11:15:55.576Z,-6.82
2017-01-12T11:16:55.549Z,-6.96
2017-01-12T11:17:55.515Z,-6.96
2017-01-12T11:18:55.498Z,-7.02
2017-01-12T11:19:55.485Z,-7.05
2017-01-12T11:20:55.456Z,-7
2017-01-12T11:21:55.439Z,-6.96
2017-01-12T11:22:55.447Z,-6.9
2017-01-12T11:23:55.380Z,-6.87
2017-01-12T11:24:55.362Z,-6.71
2017-01-12T11:25:55.343Z,-6.71
2017-01-12T11:26:55.316Z,-6.64
2017-01-12T11:27:55.294Z,-6.63
2017-01-12T11:28:55.275Z,-6.63
2017-01-12T11:29:55.246Z,-6.63
2017-01-12T11:30:55.242Z,-6.82
2017-01-12T11:31:55.231Z,-6.72
2017-01-12T11:32:55.196Z,-6.81
2017-01-12T11:33:55.160Z,-6.77
2017-01-12T11:34:55.137Z,-6.72
2017-01-12T11:35:55.124Z,-6.81
2017-01-12T11:36:55.106Z,-6.87
2017-01-12T11:37:55.080Z,-6.98
2017-01-12T11:38:55.045Z,-6.96
2017-01-12T11:39:55.026Z,-6.99
2017-01-12T11:40:55.014Z,-7.07
2017-01-12T11:41:54.994Z,-7
2017-01-12T11:42:54.961Z,-7
2017-01-12T11:43:54.932Z,-7.14
2017-01-12T11:44:54.915Z,-7.13
2017-01-12T11:45:54.897Z,-7.02
2017-01-12T11:46:54.881Z,-7.1
2017-01-12T11:47:54.855Z,-7.1
2017-01-12T11:48:54.835Z,-7.1
2017-01-12T11:49:54.802Z,-7.05
2017-01-12T11:50:54.777Z,-7.2
2017-01-12T11:51:54.754Z,-7.08
2017-01-12T11:52:54.725Z,-7.08
2017-01-12T11:53:54.704Z,-7.11
2017-01-12T11:54:54.699Z,-7.1
2017-01-12T11:55:54.687Z,-6.98
2017-01-12T11:56:54.655Z,-7.07
2017-01-12T11:57:54.625Z,-7.1
2017-01-12T11:58:54.604Z,-7.11
2017-01-12T11:59:54.570Z,-6.99
2017-01-12T12:00:54.552Z,-7.13
2017-01-12T12:01:54.530Z,-6.99
2017-01-12T12:02:54.501Z,-7.05
2017-01-12T12:03:54.478Z,-6.99
2017-01-12T12:04:54.457Z,-6.9
2017-01-12T12:05:54.439Z,-6.93
2017-01-12T12:06:54.416Z,-6.9
2017-01-12T12:07:54.415Z,-6.95
2017-01-12T12:08:54.367Z,-6.99
2017-01-12T12:09:54.349Z,-6.95
2017-01-12T12:10:54.334Z,-6.98
2017-01-12T12:11:54.303Z,-6.98
2017-01-12T12:12:54.276Z,-7.03
2017-01-12T12:13:54.262Z,-7.08
2017-01-12T12:14:54.238Z,-6.96
2017-01-12T12:15:54.217Z,-6.99
2017-01-12T12:16:54.210Z,-7.05
2017-01-12T12:17:54.170Z,-7.02
2017-01-12T12:18:54.147Z,-6.98
2017-01-12T12:19:54.118Z,-7.05
2017-01-12T12:20:54.102Z,-7.11
2017-01-12T12:21:54.079Z,-7.13
2017-01-12T12:22:54.043Z,-7.08
2017-01-12T12:23:54.026Z,-7.18
2017-01-12T12:24:54.008Z,-7.17
2017-01-12T12:25:53.995Z,-6.96
2017-01-12T12:26:53.962Z,-6.96
2017-01-12T12:27:53.944Z,-6.9
2017-01-12T12:28:53.906Z,-6.92
2017-01-12T12:29:53.884Z,-6.89
2017-01-12T12:30:53.867Z,-6.89
2017-01-12T12:31:53.855Z,-6.93
2017-01-12T12:32:53.828Z,-6.96
2017-01-12T12:33:53.807Z,-6.92
2017-01-12T12:34:53.780Z,-6.93
2017-01-12T12:35:53.754Z,-6.93
2017-01-12T12:36:53.739Z,-6.89
2017-01-12T12:37:53.712Z,-6.87
2017-01-12T12:38:53.696Z,-6.96
2017-01-12T12:39:53.676Z,-7.05
2017-01-12T12:40:53.648Z,-7
2017-01-12T12:41:53.623Z,-7.13
2017-01-12T12:42:53.701Z,-7.05
2017-01-12T12:43:53.574Z,-6.98
2017-01-12T12:44:53.560Z,-6.99
2017-01-12T12:45:53.534Z,-7.14
2017-01-12T12:46:53.508Z,-7.13
2017-01-12T12:47:53.486Z,-7.18
2017-01-12T12:48:53.464Z,-7.03
2017-01-12T12:49:53.432Z,-7.29
2017-01-12T12:50:53.408Z,-7.23
2017-01-12T12:51:53.390Z,-7.24
2017-01-12T12:52:53.379Z,-7.28
2017-01-12T12:53:53.336Z,-7.16
2017-01-12T12:54:53.323Z,-7.28
2017-01-12T12:55:53.310Z,-7.21